createdAt,value
2023-02-16T00:01:58.023Z,4.44
2023-02-16T00:04:29.819Z,4.47
2023-02-16T00:07:00.384Z,4.46
2023-02-16T00:09:32.604Z,4.45
2023-02-16T00:12:14.662Z,4.42
2023-02-16T00:14:44.265Z,4.38
2023-02-16T00:17:14.531Z,4.34
2023-02-16T00:19:44.789Z,4.29
2023-02-16T00:22:14.361Z,4.23
2023-02-16T00:24:46.509Z,4.21
2023-02-16T00:27:18.499Z,4.20
2023-02-16T00:29:48.493Z,4.22
2023-02-16T00:32:18.194Z,4.21
2023-02-16T00:34:47.876Z,4.20
2023-02-16T00:37:17.507Z,4.19
2023-02-16T00:39:49.658Z,4.14
2023-02-16T00:42:22.168Z,4.11
2023-02-16T00:44:52.634Z,4.06
2023-02-16T00:47:25.846Z,4.03
2023-02-16T00:49:57.189Z,4.00
2023-02-16T00:52:35.103Z,3.97
2023-02-16T00:55:09.580Z,3.93
2023-02-16T00:57:42.167Z,3.92
2023-02-16T01:00:18.569Z,3.88
2023-02-16T01:02:49.257Z,3.87
2023-02-16T01:05:19.076Z,3.85
2023-02-16T01:08:01.281Z,3.82
2023-02-16T01:10:46.340Z,3.80
2023-02-16T01:13:16.377Z,3.79
2023-02-16T01:15:46.930Z,3.75
2023-02-16T01:18:17.906Z,3.73
2023-02-16T01:20:48.345Z,3.73
2023-02-16T01:23:18.083Z,3.71
2023-02-16T01:25:50.281Z,3.69
2023-02-16T01:28:23.045Z,3.67
2023-02-16T01:30:53.879Z,3.67
2023-02-16T01:33:23.730Z,3.66
2023-02-16T01:35:53.952Z,3.65
2023-02-16T01:38:25.902Z,3.65
2023-02-16T01:41:07.027Z,3.65
2023-02-16T01:43:45.306Z,3.61
2023-02-16T01:46:17.542Z,3.61
2023-02-16T01:48:47.222Z,3.62
2023-02-16T01:51:21.528Z,3.63
2023-02-16T01:53:54.354Z,3.64
2023-02-16T01:56:33.465Z,3.63
2023-02-16T01:59:07.589Z,3.61
2023-02-16T02:01:44.274Z,3.59
2023-02-16T02:04:38.341Z,3.55
2023-02-16T02:07:08.122Z,3.53
2023-02-16T02:09:41.921Z,3.49
2023-02-16T02:12:21.739Z,3.46
2023-02-16T02:14:51.752Z,3.44
2023-02-16T02:17:23.318Z,3.41
2023-02-16T02:20:00.122Z,3.40
2023-02-16T02:23:32.732Z,3.40
2023-02-16T02:26:32.553Z,3.37
2023-02-16T02:29:15.182Z,3.34
2023-02-16T02:31:52.187Z,3.34
2023-02-16T02:34:27.949Z,3.33
2023-02-16T02:37:07.111Z,3.30
2023-02-16T02:39:40.606Z,3.27
2023-02-16T02:42:14.816Z,3.25
2023-02-16T02:44:58.333Z,3.23
2023-02-16T02:47:40.253Z,3.20
2023-02-16T02:50:37.660Z,3.16
2023-02-16T02:53:13.237Z,3.11
2023-02-16T02:55:58.075Z,3.10
2023-02-16T02:58:41.231Z,3.08
2023-02-16T03:01:15.001Z,3.07
2023-02-16T03:03:48.072Z,3.04
2023-02-16T03:06:21.586Z,3.02
2023-02-16T03:08:53.731Z,3.04
2023-02-16T03:11:37.751Z,3.04
2023-02-16T03:14:09.625Z,3.04
2023-02-16T03:16:45.073Z,3.03
2023-02-16T03:19:29.093Z,3.05
2023-02-16T03:22:11.523Z,3.08
2023-02-16T03:24:53.842Z,3.11
2023-02-16T03:27:40.983Z,3.13
2023-02-16T03:30:14.293Z,3.14
2023-02-16T03:32:47.059Z,3.15
2023-02-16T03:35:17.252Z,3.14
2023-02-16T03:37:48.042Z,3.14
2023-02-16T03:40:32.826Z,3.11
2023-02-16T03:43:04.412Z,3.11
2023-02-16T03:45:35.175Z,3.11
2023-02-16T03:48:07.725Z,3.09
2023-02-16T03:50:37.775Z,3.08
2023-02-16T03:53:10.120Z,3.08
2023-02-16T03:55:41.601Z,3.08
2023-02-16T03:58:12.861Z,3.06
2023-02-16T04:00:43.075Z,3.07
2023-02-16T04:03:15.391Z,3.05
2023-02-16T04:05:45.576Z,3.03
2023-02-16T04:08:15.401Z,3.06
2023-02-16T04:10:45.015Z,3.07
2023-02-16T04:13:12.052Z,3.09
2023-02-16T04:15:41.660Z,3.11
2023-02-16T04:18:11.359Z,3.10
2023-02-16T04:20:44.030Z,3.11
2023-02-16T04:23:13.665Z,3.09
2023-02-16T04:25:43.263Z,3.08
2023-02-16T04:28:12.907Z,3.08
2023-02-16T04:30:42.641Z,3.08
2023-02-16T04:33:12.335Z,3.09
2023-02-16T04:35:44.564Z,3.11
2023-02-16T04:38:14.170Z,3.11
2023-02-16T04:40:44.171Z,3.11
2023-02-16T04:43:13.804Z,3.13
2023-02-16T04:45:43.410Z,3.16
2023-02-16T04:48:13.046Z,3.18
2023-02-16T04:50:45.211Z,3.23
2023-02-16T04:53:14.871Z,3.27
2023-02-16T04:55:48.781Z,3.28
2023-02-16T04:58:18.932Z,3.30
2023-02-16T05:00:48.750Z,3.32
2023-02-16T05:03:18.343Z,3.33
2023-02-16T05:05:50.539Z,3.32
2023-02-16T05:08:20.937Z,3.32
2023-02-16T05:11:11.478Z,3.30
2023-02-16T05:13:53.534Z,3.32
2023-02-16T05:16:23.869Z,3.31
2023-02-16T05:18:53.522Z,3.32
2023-02-16T05:21:35.846Z,3.31
2023-02-16T05:24:07.571Z,3.31
2023-02-16T05:26:37.796Z,3.30
2023-02-16T05:29:07.546Z,3.27
2023-02-16T05:31:37.218Z,3.25
2023-02-16T05:34:07.025Z,3.21
2023-02-16T05:36:39.295Z,3.19
2023-02-16T05:39:08.927Z,3.14
2023-02-16T05:41:38.622Z,3.13
2023-02-16T05:44:10.453Z,3.14
2023-02-16T05:46:42.203Z,3.15
2023-02-16T05:49:12.618Z,3.15
2023-02-16T05:51:44.911Z,3.16
2023-02-16T05:54:17.527Z,3.19
2023-02-16T05:56:48.430Z,3.19
2023-02-16T05:59:18.704Z,3.21
2023-02-16T06:01:51.905Z,3.20
2023-02-16T06:04:22.907Z,3.19
2023-02-16T06:06:55.101Z,3.18
2023-02-16T06:09:24.939Z,3.16
2023-02-16T06:11:54.534Z,3.17
2023-02-16T06:14:24.181Z,3.17
2023-02-16T06:16:54.370Z,3.19
2023-02-16T06:19:24.080Z,3.23
2023-02-16T06:21:56.309Z,3.28
2023-02-16T06:24:25.957Z,3.34
2023-02-16T06:26:55.590Z,3.41
2023-02-16T06:29:25.368Z,3.49
2023-02-16T06:31:55.111Z,3.58
2023-02-16T06:34:24.838Z,3.67
2023-02-16T06:36:57.216Z,3.75
2023-02-16T06:39:26.827Z,3.83
2023-02-16T06:41:56.434Z,3.89
2023-02-16T06:44:26.447Z,3.97
2023-02-16T06:46:56.276Z,4.03
2023-02-16T06:49:27.806Z,4.10
2023-02-16T06:52:00.376Z,4.15
2023-02-16T06:54:30.024Z,4.20
2023-02-16T06:56:59.822Z,4.26
2023-02-16T06:59:29.521Z,4.32
2023-02-16T07:01:59.101Z,4.37
2023-02-16T07:04:28.762Z,4.40
2023-02-16T07:07:01.044Z,4.48
2023-02-16T07:09:30.798Z,4.61
2023-02-16T07:12:00.494Z,4.81
2023-02-16T07:14:30.131Z,5.06
2023-02-16T07:17:04.204Z,5.33
2023-02-16T07:19:34.662Z,5.61
2023-02-16T07:22:06.933Z,5.82
2023-02-16T07:24:36.632Z,5.86
2023-02-16T07:27:08.694Z,5.79
2023-02-16T07:29:38.359Z,5.66
2023-02-16T07:32:08.412Z,5.53
2023-02-16T07:34:38.066Z,5.41
2023-02-16T07:37:10.279Z,5.31
2023-02-16T07:39:39.878Z,5.26
2023-02-16T07:42:09.883Z,5.23
2023-02-16T07:44:39.887Z,5.18
2023-02-16T07:47:09.735Z,5.15
2023-02-16T07:49:40.980Z,5.11
2023-02-16T07:52:13.508Z,5.09
2023-02-16T07:54:43.300Z,5.06
2023-02-16T07:57:12.931Z,5.05
2023-02-16T07:59:42.532Z,5.07
2023-02-16T08:02:18.491Z,5.14
2023-02-16T08:04:48.604Z,5.19
2023-02-16T08:07:21.534Z,5.25
2023-02-16T08:09:52.150Z,5.35
2023-02-16T08:12:22.333Z,5.41
2023-02-16T08:14:53.174Z,5.50
2023-02-16T08:17:23.088Z,5.57
2023-02-16T08:19:53.110Z,5.65
2023-02-16T08:22:25.308Z,5.70
2023-02-16T08:24:55.129Z,5.73
2023-02-16T08:27:25.998Z,5.76
2023-02-16T08:29:57.779Z,5.81
2023-02-16T08:32:27.915Z,5.89
2023-02-16T08:34:58.172Z,5.95
2023-02-16T08:37:30.380Z,5.99
2023-02-16T08:40:00.883Z,6.01
2023-02-16T08:42:30.537Z,5.98
2023-02-16T08:45:00.212Z,5.96
2023-02-16T08:47:29.985Z,5.96
2023-02-16T08:49:59.755Z,5.98
2023-02-16T08:52:31.992Z,6.00
2023-02-16T08:55:01.798Z,6.12
2023-02-16T08:57:31.503Z,6.31
2023-02-16T09:00:13.842Z,6.42
2023-02-16T09:02:43.620Z,6.57
2023-02-16T09:05:13.528Z,6.65
2023-02-16T09:07:45.873Z,6.73
2023-02-16T09:10:15.604Z,6.85
2023-02-16T09:12:48.507Z,6.98
2023-02-16T09:15:23.944Z,7.06
2023-02-16T09:17:53.569Z,7.10
2023-02-16T09:20:23.491Z,7.05
2023-02-16T09:22:55.850Z,6.98
2023-02-16T09:25:25.696Z,6.91
2023-02-16T09:27:55.404Z,6.98
2023-02-16T09:30:25.931Z,7.33
2023-02-16T09:32:55.616Z,7.63
2023-02-16T09:35:25.674Z,7.73
2023-02-16T09:37:58.258Z,7.92
2023-02-16T09:40:27.968Z,8.06
2023-02-16T09:43:06.955Z,8.14
2023-02-16T09:45:42.664Z,8.22
2023-02-16T09:48:22.977Z,8.45
2023-02-16T09:50:54.880Z,8.71
2023-02-16T09:53:33.717Z,8.92
2023-02-16T09:56:14.003Z,9.02
2023-02-16T09:58:47.222Z,9.04
2023-02-16T10:01:23.854Z,9.07
2023-02-16T10:03:59.763Z,9.27
2023-02-16T10:06:45.128Z,9.58
2023-02-16T10:09:19.629Z,9.82
2023-02-16T10:11:56.447Z,9.95
2023-02-16T10:14:30.900Z,10.01
2023-02-16T10:17:07.739Z,10.04
2023-02-16T10:19:42.116Z,10.04
2023-02-16T10:22:17.658Z,10.02
2023-02-16T10:24:57.478Z,10.02
2023-02-16T10:27:32.794Z,9.93
2023-02-16T10:30:02.450Z,9.84
2023-02-16T10:32:43.693Z,9.74
2023-02-16T10:35:17.345Z,9.59
2023-02-16T10:37:56.902Z,9.45
2023-02-16T10:40:36.628Z,9.41
2023-02-16T10:43:10.152Z,9.39
2023-02-16T10:45:45.299Z,9.36
2023-02-16T10:48:17.311Z,9.35
2023-02-16T10:50:59.888Z,9.35
2023-02-16T10:53:38.258Z,9.32
2023-02-16T10:56:41.984Z,9.28
2023-02-16T10:59:18.696Z,9.24
2023-02-16T11:01:52.099Z,9.25
2023-02-16T11:04:36.899Z,9.25
2023-02-16T11:07:09.355Z,9.29
2023-02-16T11:09:39.720Z,9.32
2023-02-16T11:12:29.599Z,9.36
2023-02-16T11:15:03.339Z,9.43
2023-02-16T11:17:34.993Z,9.50
2023-02-16T11:20:07.312Z,9.56
2023-02-16T11:22:39.448Z,9.64
2023-02-16T11:25:25.482Z,9.81
2023-02-16T11:28:02.036Z,9.98
2023-02-16T11:30:37.826Z,10.18
2023-02-16T11:33:23.561Z,10.40
2023-02-16T11:35:53.285Z,10.58
2023-02-16T11:38:29.994Z,10.59
2023-02-16T11:41:00.507Z,10.59
2023-02-16T11:43:35.373Z,10.61
2023-02-16T11:46:06.616Z,10.75
2023-02-16T11:48:38.119Z,10.93
2023-02-16T11:51:09.725Z,11.14
2023-02-16T11:53:42.391Z,11.19
2023-02-16T11:56:15.627Z,11.08
2023-02-16T11:58:47.938Z,10.97
2023-02-16T12:01:24.298Z,10.91
2023-02-16T12:04:08.329Z,10.88
2023-02-16T12:06:49.682Z,10.86
2023-02-16T12:09:39.507Z,10.90
2023-02-16T12:12:15.155Z,10.98
2023-02-16T12:14:54.226Z,11.08
2023-02-16T12:17:45.801Z,11.19
2023-02-16T12:20:25.926Z,11.26
2023-02-16T12:23:03.628Z,11.30
2023-02-16T12:25:40.812Z,11.31
2023-02-16T12:28:18.540Z,11.35
2023-02-16T12:30:58.356Z,11.40
2023-02-16T12:33:38.089Z,11.38
2023-02-16T12:36:24.213Z,11.27
2023-02-16T12:39:00.728Z,11.22
2023-02-16T12:41:40.162Z,11.20
2023-02-16T12:44:16.126Z,11.21
2023-02-16T12:46:50.736Z,11.24
2023-02-16T12:49:25.474Z,11.27
2023-02-16T12:51:59.158Z,11.31
2023-02-16T12:54:32.217Z,11.31
2023-02-16T12:57:04.730Z,11.35
2023-02-16T12:59:38.421Z,11.44
2023-02-16T13:02:18.341Z,11.51
2023-02-16T13:04:51.793Z,11.55
2023-02-16T13:07:26.143Z,11.54
2023-02-16T13:10:01.672Z,11.55
2023-02-16T13:12:34.760Z,11.48
2023-02-16T13:15:12.394Z,11.39
2023-02-16T13:17:49.146Z,11.32
2023-02-16T13:20:20.761Z,11.29
2023-02-16T13:23:04.147Z,11.29
2023-02-16T13:26:11.399Z,11.38
2023-02-16T13:28:59.215Z,11.47
2023-02-16T13:31:38.076Z,11.55
2023-02-16T13:34:36.682Z,11.58
2023-02-16T13:37:18.611Z,11.56
2023-02-16T13:40:04.760Z,11.55
2023-02-16T13:42:58.129Z,11.59
2023-02-16T13:45:29.129Z,11.67
2023-02-16T13:48:00.201Z,11.67
2023-02-16T13:50:36.803Z,11.65
2023-02-16T13:53:18.981Z,11.66
2023-02-16T13:55:52.737Z,11.77
2023-02-16T13:58:34.302Z,11.90
2023-02-16T14:01:34.212Z,11.98
2023-02-16T14:04:04.387Z,12.04
2023-02-16T14:06:39.995Z,12.12
2023-02-16T14:09:35.458Z,12.22
2023-02-16T14:12:24.215Z,12.23
2023-02-16T14:15:02.088Z,12.27
2023-02-16T14:17:34.011Z,12.41
2023-02-16T14:20:06.065Z,12.56
2023-02-16T14:22:42.817Z,12.69
2023-02-16T14:25:37.393Z,12.72
2023-02-16T14:28:09.003Z,12.72
2023-02-16T14:30:55.403Z,12.75
2023-02-16T14:33:27.373Z,12.70
2023-02-16T14:36:16.869Z,12.64
2023-02-16T14:38:50.041Z,12.59
2023-02-16T14:41:29.493Z,12.51
2023-02-16T14:44:14.598Z,12.45
2023-02-16T14:46:51.081Z,12.41
2023-02-16T14:49:51.029Z,12.33
2023-02-16T14:52:56.611Z,12.26
2023-02-16T14:55:56.979Z,12.13
2023-02-16T14:58:31.978Z,11.97
2023-02-16T15:01:08.687Z,11.84
2023-02-16T15:03:48.009Z,11.73
2023-02-16T15:06:23.016Z,11.65
2023-02-16T15:08:58.483Z,11.60
2023-02-16T15:11:34.560Z,11.55
2023-02-16T15:14:11.152Z,11.52
2023-02-16T15:16:43.339Z,11.50
2023-02-16T15:19:21.644Z,11.45
2023-02-16T15:22:10.342Z,11.39
2023-02-16T15:24:40.025Z,11.34
2023-02-16T15:27:23.476Z,11.31
2023-02-16T15:30:06.764Z,11.27
2023-02-16T15:32:37.210Z,11.24
2023-02-16T15:35:14.547Z,11.22
2023-02-16T15:37:44.369Z,11.20
2023-02-16T15:40:25.935Z,11.17
2023-02-16T15:43:09.966Z,11.14
2023-02-16T15:45:40.988Z,11.11
2023-02-16T15:48:18.425Z,11.07
2023-02-16T15:50:48.909Z,11.03
2023-02-16T15:53:26.477Z,10.98
2023-02-16T15:55:56.204Z,10.94
2023-02-16T15:58:28.916Z,10.92
2023-02-16T16:00:58.599Z,10.91
2023-02-16T16:03:28.257Z,10.93
2023-02-16T16:06:03.893Z,10.92
2023-02-16T16:08:34.178Z,10.89
2023-02-16T16:11:04.248Z,10.85
2023-02-16T16:13:37.671Z,10.83
2023-02-16T16:16:10.028Z,10.81
2023-02-16T16:18:45.354Z,10.80
2023-02-16T16:21:24.348Z,10.76
2023-02-16T16:24:12.583Z,10.73
2023-02-16T16:26:55.328Z,10.70
2023-02-16T16:29:37.395Z,10.66
2023-02-16T16:32:08.417Z,10.63
2023-02-16T16:34:40.399Z,10.60
2023-02-16T16:37:25.405Z,10.60
2023-02-16T16:40:03.154Z,10.61
2023-02-16T16:42:33.678Z,10.62
2023-02-16T16:45:10.504Z,10.63
2023-02-16T16:47:41.849Z,10.64
2023-02-16T16:50:33.280Z,10.64
2023-02-16T16:53:03.330Z,10.62
2023-02-16T16:55:35.411Z,10.60
2023-02-16T16:58:08.812Z,10.60
2023-02-16T17:00:42.311Z,10.58
2023-02-16T17:03:15.452Z,10.54
2023-02-16T17:05:46.116Z,10.54
2023-02-16T17:08:15.933Z,10.53
2023-02-16T17:10:45.837Z,10.50
2023-02-16T17:13:17.381Z,10.51
2023-02-16T17:15:52.467Z,10.52
2023-02-16T17:18:23.717Z,10.52
2023-02-16T17:20:53.926Z,10.52
2023-02-16T17:23:25.034Z,10.53
2023-02-16T17:25:54.709Z,10.52
2023-02-16T17:28:24.735Z,10.51
2023-02-16T17:30:57.456Z,10.52
2023-02-16T17:33:27.057Z,10.52
2023-02-16T17:35:56.741Z,10.50
2023-02-16T17:38:27.101Z,10.49
2023-02-16T17:40:58.437Z,10.48
2023-02-16T17:43:31.478Z,10.46
2023-02-16T17:46:06.473Z,10.45
2023-02-16T17:48:36.488Z,10.44
2023-02-16T17:51:06.562Z,10.45
2023-02-16T17:53:36.168Z,10.45
2023-02-16T17:56:06.205Z,10.45
2023-02-16T17:58:36.075Z,10.44
2023-02-16T18:01:08.622Z,10.45
2023-02-16T18:03:38.229Z,10.45
2023-02-16T18:06:08.485Z,10.43
2023-02-16T18:08:38.562Z,10.34
2023-02-16T18:11:08.255Z,10.27
2023-02-16T18:13:37.998Z,10.22
2023-02-16T18:16:11.400Z,10.19
2023-02-16T18:18:41.722Z,10.15
2023-02-16T18:21:11.333Z,10.11
2023-02-16T18:23:41.989Z,10.09
2023-02-16T18:26:12.508Z,10.08
2023-02-16T18:28:42.120Z,10.06
2023-02-16T18:31:14.879Z,10.06
2023-02-16T18:33:44.876Z,10.05
2023-02-16T18:36:14.820Z,10.00
2023-02-16T18:38:44.446Z,9.93
2023-02-16T18:41:15.377Z,9.88
2023-02-16T18:43:45.003Z,9.84
2023-02-16T18:46:17.891Z,9.83
2023-02-16T18:48:47.564Z,9.82
2023-02-16T18:51:18.846Z,9.79
2023-02-16T18:53:48.456Z,9.75
2023-02-16T18:56:18.168Z,9.68
2023-02-16T18:58:48.230Z,9.61
2023-02-16T19:01:29.070Z,9.55
2023-02-16T19:03:59.052Z,9.47
2023-02-16T19:06:29.129Z,9.40
2023-02-16T19:08:59.074Z,9.35
2023-02-16T19:11:30.765Z,9.31
2023-02-16T19:14:00.422Z,9.26
2023-02-16T19:16:32.635Z,9.21
2023-02-16T19:19:02.281Z,9.21
2023-02-16T19:21:33.079Z,9.20
2023-02-16T19:24:02.733Z,9.21
2023-02-16T19:26:32.361Z,9.21
2023-02-16T19:29:02.157Z,9.22
2023-02-16T19:31:35.420Z,9.24
2023-02-16T19:34:05.131Z,9.23
2023-02-16T19:36:35.102Z,9.21
2023-02-16T19:39:05.395Z,9.21
2023-02-16T19:41:37.476Z,9.18
2023-02-16T19:44:07.896Z,9.11
2023-02-16T19:46:40.190Z,9.05
2023-02-16T19:49:09.938Z,8.98
2023-02-16T19:51:39.798Z,8.94
2023-02-16T19:54:09.461Z,8.90
2023-02-16T19:56:40.619Z,8.86
2023-02-16T19:59:10.743Z,8.85
2023-02-16T20:01:43.108Z,8.87
2023-02-16T20:04:13.095Z,8.87
2023-02-16T20:06:43.056Z,8.89
2023-02-16T20:09:14.370Z,8.91
2023-02-16T20:11:44.100Z,8.93
2023-02-16T20:14:13.868Z,8.93
2023-02-16T20:16:46.125Z,8.95
2023-02-16T20:19:16.011Z,8.96
2023-02-16T20:21:46.394Z,8.98
2023-02-16T20:24:16.984Z,8.99
2023-02-16T20:26:51.446Z,9.00
2023-02-16T20:29:21.397Z,9.00
2023-02-16T20:31:56.023Z,8.98
2023-02-16T20:34:26.369Z,8.95
2023-02-16T20:36:56.452Z,8.95
2023-02-16T20:39:26.873Z,8.92
2023-02-16T20:41:58.253Z,8.91
2023-02-16T20:44:28.018Z,8.93
2023-02-16T20:47:00.275Z,8.94
2023-02-16T20:49:29.880Z,8.97
2023-02-16T20:51:59.512Z,9.00
2023-02-16T20:54:31.803Z,9.02
2023-02-16T20:57:01.459Z,9.06
2023-02-16T20:59:31.621Z,9.09
2023-02-16T21:02:04.830Z,9.13
2023-02-16T21:04:34.831Z,9.14
2023-02-16T21:07:04.715Z,9.17
2023-02-16T21:09:34.742Z,9.19
2023-02-16T21:12:07.174Z,9.19
2023-02-16T21:14:37.457Z,9.18
2023-02-16T21:17:11.246Z,9.19
2023-02-16T21:19:43.581Z,9.18
2023-02-16T21:22:13.169Z,9.18
2023-02-16T21:24:43.815Z,9.18
2023-02-16T21:27:13.830Z,9.19
2023-02-16T21:29:43.532Z,9.18
2023-02-16T21:32:15.731Z,9.17
2023-02-16T21:34:45.410Z,9.13
2023-02-16T21:37:15.067Z,9.12
2023-02-16T21:39:57.257Z,9.12
2023-02-16T21:42:26.889Z,9.12
2023-02-16T21:45:12.451Z,9.12
2023-02-16T21:47:58.678Z,9.12
2023-02-16T21:50:28.745Z,9.09
2023-02-16T21:52:59.935Z,9.04
2023-02-16T21:55:42.576Z,9.03
2023-02-16T21:58:12.204Z,9.02
2023-02-16T22:00:41.914Z,9.00
2023-02-16T22:03:15.110Z,8.98
2023-02-16T22:05:44.760Z,8.96
2023-02-16T22:08:14.663Z,8.96
2023-02-16T22:10:44.347Z,8.95
2023-02-16T22:13:14.301Z,8.93
2023-02-16T22:15:43.955Z,8.92
2023-02-16T22:18:16.257Z,8.92
2023-02-16T22:20:46.040Z,8.95
2023-02-16T22:23:15.626Z,8.95
2023-02-16T22:25:45.732Z,8.94
2023-02-16T22:28:15.443Z,8.95
2023-02-16T22:30:45.517Z,8.94
2023-02-16T22:33:18.119Z,8.93
2023-02-16T22:35:47.757Z,8.93
2023-02-16T22:38:17.411Z,8.95
2023-02-16T22:40:47.032Z,8.94
2023-02-16T22:43:16.676Z,8.97
2023-02-16T22:45:46.396Z,8.97
2023-02-16T22:48:19.171Z,8.98
2023-02-16T22:50:48.807Z,8.98
2023-02-16T22:53:18.401Z,9.01
2023-02-16T22:55:48.029Z,9.03
2023-02-16T22:58:17.702Z,9.04
2023-02-16T23:00:47.937Z,9.08
2023-02-16T23:03:20.394Z,9.08
2023-02-16T23:05:50.113Z,9.05
2023-02-16T23:08:22.157Z,9.04
2023-02-16T23:11:02.400Z,9.03
2023-02-16T23:13:34.888Z,9.04
2023-02-16T23:16:07.434Z,9.05
2023-02-16T23:18:40.065Z,9.08
2023-02-16T23:21:11.016Z,9.10
2023-02-16T23:23:40.609Z,9.14
2023-02-16T23:26:10.486Z,9.18
2023-02-16T23:28:42.825Z,9.23
2023-02-16T23:31:13.170Z,9.27
2023-02-16T23:33:45.391Z,9.30
2023-02-16T23:36:15.058Z,9.36
2023-02-16T23:38:44.671Z,9.39
2023-02-16T23:41:16.367Z,9.45
2023-02-16T23:43:46.196Z,9.46
2023-02-16T23:46:16.104Z,9.50
2023-02-16T23:48:48.319Z,9.53
2023-02-16T23:51:17.947Z,9.56
2023-02-16T23:53:47.557Z,9.60
2023-02-16T23:56:20.480Z,9.64
2023-02-16T23:58:50.540Z,9.67
